Alaska — SYDS — position and weather

sailwx.info

Track history (hours):
 
Tides and Currents Weather Stations Pressure Air Temp Water Temp Dewpoint Dewpoint Depression Visibility Wind Speed Wind Dir Waves Ship Positions

Alaska

Last reported at 2014-Sep-03 14:31 UTC. Time now 2014-Sep-16 19:34 UTC.
Position N 35°60' W 005°24'.
Warning: this ship's position is 13 days out of date.

Length 274 m; draft 9.4 m.

Type: Tanker. MMSI: 240472000.

Date/timePositionNaut miles runAvg speedWind from/ knotsBaromVisibWave heightAir tempDewpointWater temp
2014-Sep-03 14:31N 35°60' W 005°24'17612.5
2014-Sep-03 00:27N 36°31' W 001°49'2713.7
2014-Sep-02 22:27N 36°37' W 001°16'1313.7
2014-Sep-02 21:32N 36°41' W 001°01'1313.6
2014-Sep-02 20:33N 36°44' W 000°44'1413.8
2014-Sep-02 19:33N 36°47' W 000°28'1414.0
2014-Sep-02 18:33N 36°51' W 000°11'1313.5
2014-Sep-02 17:33N 36°54' E 000°06'1414.1
2014-Sep-02 16:34N 36°58' E 000°23'1414.1
2014-Sep-02 15:33N 37°01' E 000°40'1414.1
2014-Sep-02 14:32N 37°05' E 000°57'1414.5
2014-Sep-02 13:33N 37°08' E 001°14'1414.3
2014-Sep-02 12:34N 37°12' E 001°32'1414.2
2014-Sep-02 11:33N 37°15' E 001°49'1414.2
2014-Sep-02 10:33N 37°19' E 002°07'1414.3
2014-Sep-02 09:33N 37°22' E 002°24'1514.5
2014-Sep-02 08:31N 37°26' E 002°42'1414.3
2014-Sep-02 07:33N 37°30' E 002°59'1414.2
2014-Sep-02 06:33N 37°33' E 003°16'28412.9
2014-Sep-01 08:33N 38°51' E 009°03'14 1.4
2014-Aug-31 22:25N 39°05' E 009°03'0 0.0
2014-Aug-31 21:31N 39°05' E 009°03'0 0.0
2014-Aug-31 20:31N 39°05' E 009°03'0 0.0
2014-Aug-31 19:31N 39°05' E 009°03'0 0.0
2014-Aug-31 18:31N 39°05' E 009°03'0 0.0
2014-Aug-31 17:31N 39°05' E 009°03'0 0.0
2014-Aug-31 16:31N 39°05' E 009°03'0 0.0
2014-Aug-31 15:31N 39°05' E 009°03'0 0.0
2014-Aug-31 14:31N 39°05' E 009°03'0 0.0
2014-Aug-31 13:28N 39°05' E 009°03'0 0.0
2014-Aug-31 12:31N 39°05' E 009°03'0 0.0
2014-Aug-31 11:31N 39°05' E 009°03'0 0.0
2014-Aug-31 10:31N 39°05' E 009°03'0 0.0
2014-Aug-31 09:31N 39°05' E 009°03'0 0.0
2014-Aug-31 08:31N 39°05' E 009°03'0 0.0
2014-Aug-31 07:31N 39°05' E 009°03'0 0.0
2014-Aug-31 06:31N 39°05' E 009°03'0 0.0
2014-Aug-31 05:31N 39°05' E 009°03'0 0.0
2014-Aug-31 04:31N 39°05' E 009°03'0 0.0
2014-Aug-31 03:31N 39°05' E 009°03'0 0.0
2014-Aug-31 02:31N 39°05' E 009°03'0 0.0
2014-Aug-31 01:28N 39°05' E 009°03'0 0.0
2014-Aug-31 00:31N 39°05' E 009°03'0 0.0
2014-Aug-30 23:28N 39°05' E 009°03'0 0.0
2014-Aug-30 22:31N 39°05' E 009°03'0 0.0
2014-Aug-30 21:31N 39°05' E 009°03'0 0.0
2014-Aug-30 20:31N 39°05' E 009°03'0 0.0
2014-Aug-30 19:31N 39°05' E 009°03'0 0.0
2014-Aug-30 18:31N 39°05' E 009°03'0 0.0
2014-Aug-30 17:31N 39°05' E 009°03'0 0.0
2014-Aug-30 16:31N 39°05' E 009°03'0 0.0
2014-Aug-30 15:28N 39°05' E 009°03'1 0.6
2014-Aug-30 14:34N 39°05' E 009°04'3 2.5
2014-Aug-30 13:32N 39°03' E 009°06'0 0.1
2014-Aug-30 12:34N 39°03' E 009°06'3 3.3
2014-Aug-30 11:33N 39°00' E 009°09'8 8.4
2014-Aug-30 10:34N 38°53' E 009°05'1312.5
2014-Aug-30 09:33N 38°43' E 008°54'1212.2
2014-Aug-30 08:34N 38°37' E 008°41'1312.7
2014-Aug-30 07:33N 38°34' E 008°25'1412.9
2014-Aug-30 06:28N 38°30' E 008°08'1313.0
2014-Aug-30 05:30N 38°26' E 007°52'1213.0
2014-Aug-30 04:33N 38°23' E 007°37'2712.7
2014-Aug-30 02:26N 38°18' E 007°03'1112.8
2014-Aug-30 01:33N 38°15' E 006°49'1412.8
2014-Aug-30 00:29N 38°12' E 006°33'1212.7
2014-Aug-29 23:31N 38°08' E 006°18'1212.5
2014-Aug-29 22:33N 38°05' E 006°03'1712.2
2014-Aug-29 21:08N 38°01' E 005°41'712.0
2014-Aug-29 20:33N 37°59' E 005°33'1212.0
2014-Aug-29 19:33N 37°56' E 005°18'1212.3
2014-Aug-29 18:34N 37°53' E 005°03'1912.7
2014-Aug-29 17:03N 37°48' E 004°40'612.6
2014-Aug-29 16:33N 37°46' E 004°33'1312.6
2014-Aug-29 15:33N 37°42' E 004°18'1312.6
2014-Aug-29 14:33N 37°39' E 004°02'1312.7
2014-Aug-29 13:34N 37°36' E 003°47'1312.8
2014-Aug-29 12:33N 37°32' E 003°31'1313.4
2014-Aug-29 11:33N 37°30' E 003°14'1413.3
2014-Aug-29 10:29N 37°26' E 002°57'1212.9
2014-Aug-29 09:33N 37°23' E 002°42'1312.9
2014-Aug-29 08:33N 37°20' E 002°27'1613.0
2014-Aug-29 07:18N 37°16' E 002°07'1013.4
2014-Aug-29 06:33N 37°13' E 001°55'1413.2
2014-Aug-29 05:28N 37°10' E 001°37'1212.7
2014-Aug-29 04:33N 37°07' E 001°23'1313.0
2014-Aug-29 03:34N 37°04' E 001°07'1412.9
2014-Aug-29 02:31N 37°00' E 000°51'1313.2
2014-Aug-29 01:31N 36°57' E 000°35'1313.5
2014-Aug-29 00:32N 36°53' E 000°19'1313.6
2014-Aug-28 23:33N 36°50' E 000°03'1413.5
2014-Aug-28 22:33N 36°45' W 000°13'1412.9
2014-Aug-28 21:29N 36°43' W 000°30'1213.1
2014-Aug-28 20:32N 36°40' W 000°45'1313.0
2014-Aug-28 19:33N 36°36' W 001°00'1313.0
2014-Aug-28 18:32N 36°33' W 001°16'1313.0
2014-Aug-28 17:33N 36°30' W 001°31'1313.1
2014-Aug-28 16:32N 36°27' W 001°47'2315.8
2014-Aug-28 15:07N 36°21' W 002°15'14 9.3
2014-Aug-28 13:34N 36°19' W 002°32'13413.3
2014-Aug-28 03:27N 35°59' W 005°16'30612.6
2014-Aug-27 03:07N 34°02' W 011°01'  
Track history (hours):
 
Tides and Currents Weather Stations Pressure Air Temp Water Temp Dewpoint Dewpoint Depression Visibility Wind Speed Wind Dir Waves Ship Positions

Alaska

Last reported at 2014-Sep-03 14:31 UTC. Time now 2014-Sep-16 19:34 UTC.
Position N 35°60' W 005°24'.
Warning: this ship's position is 13 days out of date.

Length 274 m; draft 9.4 m.

Type: Tanker. MMSI: 240472000.

Date/timePositionNaut miles runAvg speedWind from/ knotsBaromVisibWave heightAir tempDewpointWater temp
2014-Sep-03 14:31N 35°60' W 005°24'17612.5
2014-Sep-03 00:27N 36°31' W 001°49'2713.7
2014-Sep-02 22:27N 36°37' W 001°16'1313.7
2014-Sep-02 21:32N 36°41' W 001°01'1313.6
2014-Sep-02 20:33N 36°44' W 000°44'1413.8
2014-Sep-02 19:33N 36°47' W 000°28'1414.0
2014-Sep-02 18:33N 36°51' W 000°11'1313.5
2014-Sep-02 17:33N 36°54' E 000°06'1414.1
2014-Sep-02 16:34N 36°58' E 000°23'1414.1
2014-Sep-02 15:33N 37°01' E 000°40'1414.1
2014-Sep-02 14:32N 37°05' E 000°57'1414.5
2014-Sep-02 13:33N 37°08' E 001°14'1414.3
2014-Sep-02 12:34N 37°12' E 001°32'1414.2
2014-Sep-02 11:33N 37°15' E 001°49'1414.2
2014-Sep-02 10:33N 37°19' E 002°07'1414.3
2014-Sep-02 09:33N 37°22' E 002°24'1514.5
2014-Sep-02 08:31N 37°26' E 002°42'1414.3
2014-Sep-02 07:33N 37°30' E 002°59'1414.2
2014-Sep-02 06:33N 37°33' E 003°16'28412.9
2014-Sep-01 08:33N 38°51' E 009°03'14 1.4
2014-Aug-31 22:25N 39°05' E 009°03'0 0.0
2014-Aug-31 21:31N 39°05' E 009°03'0 0.0
2014-Aug-31 20:31N 39°05' E 009°03'0 0.0
2014-Aug-31 19:31N 39°05' E 009°03'0 0.0
2014-Aug-31 18:31N 39°05' E 009°03'0 0.0
2014-Aug-31 17:31N 39°05' E 009°03'0 0.0
2014-Aug-31 16:31N 39°05' E 009°03'0 0.0
2014-Aug-31 15:31N 39°05' E 009°03'0 0.0
2014-Aug-31 14:31N 39°05' E 009°03'0 0.0
2014-Aug-31 13:28N 39°05' E 009°03'0 0.0
2014-Aug-31 12:31N 39°05' E 009°03'0 0.0
2014-Aug-31 11:31N 39°05' E 009°03'0 0.0
2014-Aug-31 10:31N 39°05' E 009°03'0 0.0
2014-Aug-31 09:31N 39°05' E 009°03'0 0.0
2014-Aug-31 08:31N 39°05' E 009°03'0 0.0
2014-Aug-31 07:31N 39°05' E 009°03'0 0.0
2014-Aug-31 06:31N 39°05' E 009°03'0 0.0
2014-Aug-31 05:31N 39°05' E 009°03'0 0.0
2014-Aug-31 04:31N 39°05' E 009°03'0 0.0
2014-Aug-31 03:31N 39°05' E 009°03'0 0.0
2014-Aug-31 02:31N 39°05' E 009°03'0 0.0
2014-Aug-31 01:28N 39°05' E 009°03'0 0.0
2014-Aug-31 00:31N 39°05' E 009°03'0 0.0
2014-Aug-30 23:28N 39°05' E 009°03'0 0.0
2014-Aug-30 22:31N 39°05' E 009°03'0 0.0
2014-Aug-30 21:31N 39°05' E 009°03'0 0.0
2014-Aug-30 20:31N 39°05' E 009°03'0 0.0
2014-Aug-30 19:31N 39°05' E 009°03'0 0.0
2014-Aug-30 18:31N 39°05' E 009°03'0 0.0
2014-Aug-30 17:31N 39°05' E 009°03'0 0.0
2014-Aug-30 16:31N 39°05' E 009°03'0 0.0
2014-Aug-30 15:28N 39°05' E 009°03'1 0.6
2014-Aug-30 14:34N 39°05' E 009°04'3 2.5
2014-Aug-30 13:32N 39°03' E 009°06'0 0.1
2014-Aug-30 12:34N 39°03' E 009°06'3 3.3
2014-Aug-30 11:33N 39°00' E 009°09'8 8.4
2014-Aug-30 10:34N 38°53' E 009°05'1312.5
2014-Aug-30 09:33N 38°43' E 008°54'1212.2
2014-Aug-30 08:34N 38°37' E 008°41'1312.7
2014-Aug-30 07:33N 38°34' E 008°25'1412.9
2014-Aug-30 06:28N 38°30' E 008°08'1313.0
2014-Aug-30 05:30N 38°26' E 007°52'1213.0
2014-Aug-30 04:33N 38°23' E 007°37'2712.7
2014-Aug-30 02:26N 38°18' E 007°03'1112.8
2014-Aug-30 01:33N 38°15' E 006°49'1412.8
2014-Aug-30 00:29N 38°12' E 006°33'1212.7
2014-Aug-29 23:31N 38°08' E 006°18'1212.5
2014-Aug-29 22:33N 38°05' E 006°03'1712.2
2014-Aug-29 21:08N 38°01' E 005°41'712.0
2014-Aug-29 20:33N 37°59' E 005°33'1212.0
2014-Aug-29 19:33N 37°56' E 005°18'1212.3
2014-Aug-29 18:34N 37°53' E 005°03'1912.7
2014-Aug-29 17:03N 37°48' E 004°40'612.6
2014-Aug-29 16:33N 37°46' E 004°33'1312.6
2014-Aug-29 15:33N 37°42' E 004°18'1312.6
2014-Aug-29 14:33N 37°39' E 004°02'1312.7
2014-Aug-29 13:34N 37°36' E 003°47'1312.8
2014-Aug-29 12:33N 37°32' E 003°31'1313.4
2014-Aug-29 11:33N 37°30' E 003°14'1413.3
2014-Aug-29 10:29N 37°26' E 002°57'1212.9
2014-Aug-29 09:33N 37°23' E 002°42'1312.9
2014-Aug-29 08:33N 37°20' E 002°27'1613.0
2014-Aug-29 07:18N 37°16' E 002°07'1013.4
2014-Aug-29 06:33N 37°13' E 001°55'1413.2
2014-Aug-29 05:28N 37°10' E 001°37'1212.7
2014-Aug-29 04:33N 37°07' E 001°23'1313.0
2014-Aug-29 03:34N 37°04' E 001°07'1412.9
2014-Aug-29 02:31N 37°00' E 000°51'1313.2
2014-Aug-29 01:31N 36°57' E 000°35'1313.5
2014-Aug-29 00:32N 36°53' E 000°19'1313.6
2014-Aug-28 23:33N 36°50' E 000°03'1413.5
2014-Aug-28 22:33N 36°45' W 000°13'1412.9
2014-Aug-28 21:29N 36°43' W 000°30'1213.1
2014-Aug-28 20:32N 36°40' W 000°45'1313.0
2014-Aug-28 19:33N 36°36' W 001°00'1313.0
2014-Aug-28 18:32N 36°33' W 001°16'1313.0
2014-Aug-28 17:33N 36°30' W 001°31'1313.1
2014-Aug-28 16:32N 36°27' W 001°47'2315.8
2014-Aug-28 15:07N 36°21' W 002°15'14 9.3
2014-Aug-28 13:34N 36°19' W 002°32'13413.3
2014-Aug-28 03:27N 35°59' W 005°16'30612.6
2014-Aug-27 03:07N 34°02' W 011°01'  

Dump ship's entire track history